createdAt,value
2023-03-14T00:01:38.949Z,4.60
2023-03-14T00:06:40.394Z,4.40
2023-03-14T00:11:41.828Z,3.95
2023-03-14T00:16:46.354Z,4.97
2023-03-14T00:26:49.035Z,4.25
2023-03-14T00:31:50.725Z,4.18
2023-03-14T00:36:52.050Z,5.00
2023-03-14T00:41:54.477Z,4.65
2023-03-14T00:46:56.127Z,4.28
2023-03-14T00:51:59.541Z,4.72
2023-03-14T00:57:00.930Z,5.15
2023-03-14T01:02:02.253Z,4.47
2023-03-14T01:07:03.572Z,3.25
2023-03-14T01:12:04.958Z,5.32
2023-03-14T01:17:06.281Z,4.28
2023-03-14T01:22:07.675Z,3.88
2023-03-14T01:27:09.170Z,3.90
2023-03-14T01:32:10.521Z,4.47
2023-03-14T01:37:12.842Z,4.85
2023-03-14T01:42:14.633Z,3.65
2023-03-14T01:47:16.021Z,4.15
2023-03-14T01:52:43.886Z,4.30
2023-03-14T01:57:47.145Z,4.75
2023-03-14T02:02:51.576Z,4.13
2023-03-14T02:12:56.390Z,5.05
2023-03-14T02:17:58.338Z,4.80
2023-03-14T02:23:00.427Z,4.32
2023-03-14T02:28:02.278Z,5.70
2023-03-14T02:33:15.310Z,4.22
2023-03-14T02:38:16.626Z,4.68
2023-03-14T02:43:17.986Z,4.00
2023-03-14T02:48:25.069Z,3.85
2023-03-14T02:53:30.726Z,3.92
2023-03-14T02:58:32.112Z,4.05
2023-03-14T03:03:33.630Z,4.07
2023-03-14T03:08:35.143Z,4.70
2023-03-14T03:13:36.493Z,3.42
2023-03-14T03:18:37.962Z,3.67
2023-03-14T03:23:39.325Z,3.53
2023-03-14T03:28:40.655Z,3.58
2023-03-14T03:33:42.045Z,4.50
2023-03-14T03:38:43.454Z,3.70
2023-03-14T03:43:44.838Z,4.22
2023-03-14T03:48:46.173Z,3.47
2023-03-14T03:53:47.563Z,3.97
2023-03-14T03:58:48.946Z,4.90
2023-03-14T04:03:50.348Z,3.60
2023-03-14T04:08:51.881Z,2.92
2023-03-14T04:13:53.248Z,3.35
2023-03-14T04:18:54.568Z,4.65
2023-03-14T04:23:55.931Z,2.58
2023-03-14T04:28:57.321Z,2.40
2023-03-14T04:33:58.638Z,2.15
2023-03-14T04:39:00.241Z,2.25
2023-03-14T04:44:01.563Z,2.17
2023-03-14T04:49:02.930Z,2.05
2023-03-14T04:54:04.256Z,1.98
2023-03-14T04:59:08.192Z,2.55
2023-03-14T05:04:09.558Z,2.70
2023-03-14T05:09:10.926Z,2.38
2023-03-14T05:14:12.310Z,2.28
2023-03-14T05:19:14.215Z,1.90
2023-03-14T05:24:15.595Z,3.10
2023-03-14T05:29:16.954Z,3.25
2023-03-14T05:34:18.294Z,2.42
2023-03-14T05:39:19.707Z,3.25
2023-03-14T05:44:21.080Z,2.67
2023-03-14T05:49:22.535Z,2.80
2023-03-14T05:54:23.937Z,2.10
2023-03-14T05:59:25.277Z,2.55
2023-03-14T06:04:26.644Z,3.65
2023-03-14T06:09:28.029Z,3.80
2023-03-14T06:14:30.742Z,2.92
2023-03-14T06:19:32.077Z,3.28
2023-03-14T06:24:33.727Z,3.03
2023-03-14T06:29:35.056Z,3.75
2023-03-14T06:34:36.416Z,4.78
2023-03-14T06:39:39.672Z,4.68
2023-03-14T06:44:41.095Z,4.20
2023-03-14T06:49:42.471Z,4.97
2023-03-14T06:54:43.781Z,5.13
2023-03-14T06:59:45.170Z,5.15
2023-03-14T07:04:46.992Z,4.53
2023-03-14T07:09:48.620Z,3.92
2023-03-14T07:14:50.060Z,4.28
2023-03-14T07:19:51.492Z,4.55
2023-03-14T07:24:52.856Z,3.90
2023-03-14T07:29:56.492Z,4.30
2023-03-14T07:34:57.878Z,5.10
2023-03-14T07:39:59.284Z,4.03
2023-03-14T07:45:00.734Z,2.92
2023-03-14T07:50:02.235Z,3.72
2023-03-14T07:55:04.815Z,3.55
2023-03-14T08:00:06.893Z,3.58
2023-03-14T08:05:08.606Z,3.95
2023-03-14T08:10:10.285Z,3.67
2023-03-14T08:15:12.839Z,4.20
2023-03-14T08:20:14.808Z,2.40
2023-03-14T08:25:19.024Z,0.50
2023-03-14T08:30:21.920Z,0.30
2023-03-14T08:35:25.821Z,0.50
2023-03-14T08:40:28.836Z,0.47
2023-03-14T08:45:30.881Z,0.60
2023-03-14T08:50:32.604Z,0.80
2023-03-14T08:55:33.980Z,0.63
2023-03-14T09:00:35.366Z,0.90
2023-03-14T09:05:36.775Z,1.37
2023-03-14T09:10:39.794Z,1.40
2023-03-14T09:15:43.548Z,0.47
2023-03-14T09:20:44.977Z,0.40
2023-03-14T09:25:46.291Z,0.67
2023-03-14T09:30:49.933Z,0.67
2023-03-14T09:35:51.480Z,0.90
2023-03-14T09:40:53.021Z,0.77
2023-03-14T09:45:57.344Z,0.70
2023-03-14T09:50:59.908Z,0.50
2023-03-14T09:56:01.426Z,0.70
2023-03-14T10:01:04.540Z,0.80
2023-03-14T10:06:11.799Z,0.90
2023-03-14T10:11:15.446Z,0.60
2023-03-14T10:16:16.934Z,0.83
2023-03-14T10:21:19.227Z,0.73
2023-03-14T10:26:34.107Z,1.00
2023-03-14T10:31:47.844Z,2.33
2023-03-14T10:36:53.406Z,0.90
2023-03-14T10:41:56.877Z,0.97
2023-03-14T10:47:03.813Z,1.13
2023-03-14T10:52:20.739Z,0.87
2023-03-14T10:57:22.266Z,1.05
2023-03-14T11:02:38.719Z,1.55
2023-03-14T11:07:41.358Z,1.20
2023-03-14T11:12:49.380Z,2.58
2023-03-14T11:18:00.443Z,1.40
2023-03-14T11:23:07.969Z,1.58
2023-03-14T11:28:15.188Z,1.60
2023-03-14T11:33:17.771Z,1.98
2023-03-14T11:38:21.982Z,1.63
2023-03-14T11:43:29.586Z,1.98
2023-03-14T11:48:40.001Z,2.35
2023-03-14T11:54:00.764Z,2.33
2023-03-14T11:59:20.751Z,2.10
2023-03-14T12:04:22.137Z,2.00
2023-03-14T12:09:23.736Z,2.30
2023-03-14T12:14:25.150Z,2.55
2023-03-14T12:19:29.376Z,2.28
2023-03-14T12:24:33.388Z,2.72
2023-03-14T12:29:54.742Z,2.63
2023-03-14T12:34:56.207Z,1.92
2023-03-14T12:40:10.577Z,2.33
2023-03-14T12:50:16.546Z,1.70
2023-03-14T12:55:27.178Z,1.45
2023-03-14T13:00:33.377Z,1.30
2023-03-14T13:05:35.091Z,1.42
2023-03-14T13:10:44.094Z,1.20
2023-03-14T13:15:47.213Z,1.27
2023-03-14T13:20:56.290Z,1.50
2023-03-14T13:25:58.249Z,1.80
2023-03-14T13:31:03.295Z,1.50
2023-03-14T13:36:06.024Z,1.23
2023-03-14T13:41:08.826Z,1.77
2023-03-14T13:46:24.231Z,1.70
2023-03-14T13:51:28.594Z,1.40
2023-03-14T13:56:31.973Z,1.10
2023-03-14T14:01:34.859Z,1.30
2023-03-14T14:06:37.497Z,1.55
2023-03-14T14:11:59.882Z,1.73
2023-03-14T14:17:08.177Z,1.20
2023-03-14T14:27:15.514Z,1.23
2023-03-14T14:32:17.202Z,0.95
2023-03-14T14:37:35.394Z,1.45
2023-03-14T14:42:40.341Z,1.30
2023-03-14T14:47:53.653Z,1.85
2023-03-14T14:52:58.740Z,1.00
2023-03-14T14:58:11.921Z,0.80
2023-03-14T15:03:14.607Z,1.25
2023-03-14T15:08:16.307Z,2.55
2023-03-14T15:13:17.638Z,1.65
2023-03-14T15:18:19.405Z,1.23
2023-03-14T15:23:21.638Z,1.92
2023-03-14T15:28:24.846Z,3.90
2023-03-14T15:33:27.259Z,2.63
2023-03-14T15:38:28.731Z,2.97
2023-03-14T15:43:30.598Z,2.20
2023-03-14T15:48:31.923Z,2.50
2023-03-14T15:53:33.324Z,2.35
2023-03-14T15:58:35.114Z,2.30
2023-03-14T16:03:36.649Z,1.70
2023-03-14T16:08:38.002Z,1.67
2023-03-14T16:13:39.395Z,2.07
2023-03-14T16:18:40.860Z,3.80
2023-03-14T16:23:43.517Z,2.10
2023-03-14T16:28:46.040Z,2.70
2023-03-14T16:33:47.543Z,2.57
2023-03-14T16:38:49.527Z,1.73
2023-03-14T16:43:53.061Z,2.40
2023-03-14T16:48:54.547Z,5.00
2023-03-14T16:53:56.765Z,1.83
2023-03-14T16:58:58.582Z,1.77
2023-03-14T17:04:00.033Z,1.50
2023-03-14T17:09:04.629Z,2.00
2023-03-14T17:14:05.957Z,2.42
2023-03-14T17:19:07.652Z,2.47
2023-03-14T17:24:09.077Z,2.13
2023-03-14T17:29:10.812Z,2.93
2023-03-14T17:34:12.163Z,1.63
2023-03-14T17:39:15.568Z,2.17
2023-03-14T17:44:17.148Z,1.80
2023-03-14T17:49:18.549Z,2.50
2023-03-14T17:54:21.021Z,2.70
2023-03-14T17:59:22.372Z,2.00
2023-03-14T18:04:23.756Z,12.07
2023-03-14T18:09:25.222Z,2.20
2023-03-14T18:14:29.008Z,2.27
2023-03-14T18:19:31.048Z,1.48
2023-03-14T18:24:32.523Z,1.97
2023-03-14T18:29:34.462Z,1.67
2023-03-14T18:34:35.853Z,1.80
2023-03-14T18:39:37.380Z,2.37
2023-03-14T18:44:38.846Z,2.90
2023-03-14T18:49:40.711Z,2.40
2023-03-14T18:54:42.078Z,1.53
2023-03-14T18:59:43.788Z,1.97
2023-03-14T19:04:45.353Z,1.40
2023-03-14T19:09:46.796Z,1.20
2023-03-14T19:14:48.112Z,4.00
2023-03-14T19:19:51.906Z,2.30
2023-03-14T19:24:53.663Z,1.30
2023-03-14T19:29:55.010Z,1.07
2023-03-14T19:34:56.412Z,1.50
2023-03-14T19:39:57.795Z,1.53
2023-03-14T19:44:59.476Z,2.10
2023-03-14T19:50:01.357Z,1.43
2023-03-14T19:55:02.954Z,1.93
2023-03-14T20:00:10.070Z,1.43
2023-03-14T20:05:13.271Z,1.93
2023-03-14T20:10:18.789Z,1.77
2023-03-14T20:15:22.073Z,1.57
2023-03-14T20:20:23.503Z,1.77
2023-03-14T20:25:24.851Z,3.60
2023-03-14T20:30:26.367Z,2.77
2023-03-14T20:35:27.728Z,1.57
2023-03-14T20:40:29.186Z,2.20
2023-03-14T20:45:30.586Z,1.50
2023-03-14T20:50:31.970Z,1.80
2023-03-14T20:55:33.350Z,1.77
2023-03-14T21:00:34.810Z,1.60
2023-03-14T21:05:40.891Z,1.23
2023-03-14T21:10:42.585Z,1.20
2023-03-14T21:15:44.110Z,1.03
2023-03-14T21:20:45.993Z,1.23
2023-03-14T21:25:49.765Z,0.77
2023-03-14T21:30:51.097Z,1.43
2023-03-14T21:35:52.906Z,0.80
2023-03-14T21:40:58.006Z,0.73
2023-03-14T21:45:59.602Z,0.90
2023-03-14T21:51:06.091Z,0.80
2023-03-14T21:56:07.550Z,4.03
2023-03-14T22:01:10.056Z,1.23
2023-03-14T22:06:12.219Z,1.13
2023-03-14T22:11:13.630Z,0.80
2023-03-14T22:16:15.184Z,0.80
2023-03-14T22:21:16.520Z,1.13
2023-03-14T22:26:18.000Z,1.20
2023-03-14T22:31:20.617Z,1.20
2023-03-14T22:36:24.710Z,1.10
2023-03-14T22:41:26.047Z,1.35
2023-03-14T22:46:27.416Z,1.10
2023-03-14T22:51:28.778Z,1.37
2023-03-14T22:56:30.199Z,1.40
2023-03-14T23:01:31.983Z,1.40
2023-03-14T23:06:33.674Z,1.47
2023-03-14T23:11:35.496Z,1.60
2023-03-14T23:16:40.737Z,1.27
2023-03-14T23:21:42.567Z,1.33
2023-03-14T23:26:46.068Z,2.03
2023-03-14T23:31:47.705Z,1.37
2023-03-14T23:36:49.214Z,1.87
2023-03-14T23:41:50.598Z,1.30
2023-03-14T23:46:53.108Z,1.20
2023-03-14T23:51:54.499Z,2.63
2023-03-14T23:56:55.934Z,1.30
